Time;durP1;ratioP1;P1;durP2;ratioP2;P2;SDS_P1;SDS_P2;PMS_P1;PMS_P2;Temp;Humidity;BMP_temperature;BMP_pressure;BME280_temperature;BME280_humidity;BME280_pressure;Samples;Min_cycle;Max_cycle;Signal;HPM_P1;HPM_P2
2021/11/18 00:00:55;;;;;;;12.30;4.80;;;20.00;60.50;;;;;;6155626;22;87071;-76
2021/11/18 00:03:22;;;;;;;8.90;4.45;;;20.00;60.50;;;;;;6154094;22;87572;-75
2021/11/18 00:05:47;;;;;;;13.52;5.18;;;20.00;60.60;;;;;;6128681;22;89438;-78
2021/11/18 00:08:14;;;;;;;8.93;3.85;;;20.00;60.70;;;;;;6153351;22;88406;-78
2021/11/18 00:11:01;;;;;;;10.30;4.47;;;20.00;61.00;;;;;;6154412;22;88234;-77
2021/11/18 00:13:33;;;;;;;10.90;4.00;;;20.00;61.00;;;;;;6127469;22;87568;-77
2021/11/18 00:15:59;;;;;;;7.75;4.50;;;20.00;60.60;;;;;;6153701;22;87536;-77
2021/11/18 00:18:28;;;;;;;11.82;4.90;;;20.00;60.70;;;;;;6152062;22;87493;-76
2021/11/18 00:21:01;;;;;;;7.95;3.92;;;19.90;60.80;;;;;;6128885;22;90576;-78
2021/11/18 00:23:30;;;;;;;10.25;4.03;;;19.90;61.00;;;;;;6156360;22;87461;-78
2021/11/18 00:25:56;;;;;;;11.40;4.75;;;19.90;61.10;;;;;;6154491;22;87090;-78
2021/11/18 00:28:22;;;;;;;10.05;3.63;;;19.90;60.90;;;;;;6154901;22;88148;-78
2021/11/18 00:30:48;;;;;;;7.95;3.78;;;19.90;60.80;;;;;;6154402;22;87060;-77
2021/11/18 00:33:15;;;;;;;12.55;4.45;;;19.90;60.60;;;;;;6154574;22;87983;-78
2021/11/18 00:35:40;;;;;;;9.27;4.07;;;19.90;60.10;;;;;;6154553;22;87373;-76
2021/11/18 00:38:07;;;;;;;9.35;3.75;;;19.90;60.50;;;;;;6153491;22;88146;-78
2021/11/18 00:40:38;;;;;;;10.27;3.70;;;19.80;60.10;;;;;;6153865;22;87623;-76
2021/11/18 00:43:07;;;;;;;10.98;4.75;;;19.80;60.00;;;;;;6155695;22;87738;-76
2021/11/18 00:45:33;;;;;;;11.85;4.53;;;19.80;60.10;;;;;;6154855;22;87892;-78
2021/11/18 00:47:59;;;;;;;8.65;3.55;;;19.80;60.30;;;;;;6152672;22;87670;-76
2021/11/18 00:50:52;;;;;;;7.20;3.53;;;19.80;60.50;;;;;;6154562;22;87233;-77
2021/11/18 00:53:18;;;;;;;9.00;3.97;;;19.80;60.40;;;;;;6141865;22;87633;-78
2021/11/18 00:55:45;;;;;;;9.20;3.90;;;19.80;60.30;;;;;;6153868;22;87308;-77
2021/11/18 00:58:11;;;;;;;7.97;3.67;;;19.70;60.10;;;;;;6152157;22;89278;-78
2021/11/18 01:00:39;;;;;;;10.23;3.88;;;19.70;60.40;;;;;;6152658;22;89285;-77
2021/11/18 01:03:06;;;;;;;9.70;4.10;;;19.70;60.40;;;;;;6153338;22;87615;-76
2021/11/18 01:05:34;;;;;;;7.95;3.58;;;19.70;60.50;;;;;;6151309;22;87582;-78
2021/11/18 01:08:00;;;;;;;8.68;3.55;;;19.70;60.70;;;;;;6124610;22;90229;-77
2021/11/18 01:10:30;;;;;;;10.75;4.30;;;19.70;60.40;;;;;;6124689;22;89628;-76
2021/11/18 01:12:56;;;;;;;10.57;3.83;;;19.70;60.50;;;;;;6150646;22;87693;-79
2021/11/18 01:15:26;;;;;;;10.13;3.85;;;19.70;60.00;;;;;;6150796;22;86494;-78
2021/11/18 01:17:51;;;;;;;7.32;3.72;;;19.70;59.60;;;;;;6151779;22;87690;-78
2021/11/18 01:20:19;;;;;;;10.60;3.60;;;19.60;59.40;;;;;;6151107;22;87733;-76
2021/11/18 01:22:45;;;;;;;10.68;3.90;;;19.70;60.10;;;;;;6151299;22;88557;-78
2021/11/18 01:25:13;;;;;;;7.05;3.13;;;19.60;60.30;;;;;;6150389;22;87333;-75
2021/11/18 01:27:39;;;;;;;11.23;3.90;;;19.60;60.40;;;;;;6151065;22;88517;-76
2021/11/18 01:30:08;;;;;;;7.47;3.42;;;19.60;60.40;;;;;;6150961;22;87801;-74
2021/11/18 01:32:34;;;;;;;10.48;3.65;;;19.60;60.30;;;;;;6150998;22;87447;-75
2021/11/18 01:34:59;;;;;;;9.35;3.67;;;19.60;60.50;;;;;;6151976;22;87543;-78
2021/11/18 01:37:25;;;;;;;10.48;4.00;;;19.60;60.40;;;;;;6124802;22;89230;-78
2021/11/18 01:39:51;;;;;;;10.60;3.70;;;19.50;60.50;;;;;;6152226;22;87508;-78
2021/11/18 01:42:17;;;;;;;10.77;4.25;;;19.50;60.50;;;;;;6151656;22;87794;-77
2021/11/18 01:44:45;;;;;;;9.77;3.92;;;19.50;60.80;;;;;;6150132;22;87528;-79
2021/11/18 01:47:12;;;;;;;7.45;3.20;;;19.50;60.80;;;;;;6150216;22;89080;-78
2021/11/18 01:49:40;;;;;;;7.70;3.78;;;19.40;60.90;;;;;;6128495;22;89524;-76
2021/11/18 01:52:13;;;;;;;9.18;3.45;;;19.40;60.90;;;;;;6157627;22;86968;-77
2021/11/18 01:54:41;;;;;;;7.97;3.38;;;19.40;61.10;;;;;;6155925;22;87661;-78
2021/11/18 01:57:09;;;;;;;9.27;4.47;;;19.30;61.30;;;;;;6128961;22;90243;-76
2021/11/18 01:59:39;;;;;;;7.05;3.70;;;19.20;61.40;;;;;;6129665;22;88955;-79
2021/11/18 02:02:07;;;;;;;7.07;3.42;;;19.30;61.30;;;;;;6155488;22;87370;-77
2021/11/18 02:04:32;;;;;;;9.82;3.38;;;19.20;61.10;;;;;;6129890;22;87802;-75
2021/11/18 02:07:07;;;;;;;6.22;3.38;;;19.30;60.90;;;;;;6129304;22;88257;-79
2021/11/18 02:09:40;;;;;;;9.63;3.85;;;19.30;60.60;;;;;;6155224;22;87762;-77
2021/11/18 02:12:13;;;;;;;6.05;3.78;;;19.30;60.60;;;;;;6154476;22;88297;-77
2021/11/18 02:14:39;;;;;;;7.20;3.50;;;19.30;60.40;;;;;;6129025;22;89518;-78
2021/11/18 02:17:07;;;;;;;6.03;3.15;;;19.30;60.40;;;;;;6127747;22;90028;-76
2021/11/18 02:19:44;;;;;;;8.35;3.70;;;19.30;60.20;;;;;;6153372;22;87462;-77
2021/11/18 02:22:10;;;;;;;4.75;2.90;;;19.30;60.20;;;;;;6153178;22;87569;-78
2021/11/18 02:24:50;;;;;;;7.93;3.38;;;19.30;60.00;;;;;;6153510;22;87475;-78
2021/11/18 02:27:18;;;;;;;6.13;3.30;;;19.30;59.90;;;;;;6127886;22;90342;-78
2021/11/18 02:29:50;;;;;;;8.23;3.70;;;19.40;59.70;;;;;;6129010;22;87953;-77
2021/11/18 02:32:19;;;;;;;10.43;3.80;;;19.30;59.50;;;;;;6155792;22;87551;-78
2021/11/18 02:34:49;;;;;;;6.97;3.25;;;19.40;59.60;;;;;;6128280;22;87647;-77
2021/11/18 02:37:16;;;;;;;8.75;3.65;;;19.30;59.50;;;;;;6152416;22;88670;-77
2021/11/18 02:39:42;;;;;;;7.13;3.97;;;19.30;59.50;;;;;;6154134;22;88765;-77
2021/11/18 02:42:10;;;;;;;10.30;3.83;;;19.30;59.00;;;;;;6153198;22;87293;-76
2021/11/18 02:44:36;;;;;;;8.55;3.92;;;19.30;58.90;;;;;;6128624;22;91186;-78
2021/11/18 02:47:06;;;;;;;7.80;3.40;;;19.30;58.80;;;;;;6154862;22;88116;-76
2021/11/18 02:49:33;;;;;;;9.13;4.38;;;19.30;58.90;;;;;;6126297;22;89976;-78
2021/11/18 02:51:58;;;;;;;10.95;4.57;;;19.30;58.70;;;;;;6127175;22;87339;-78
2021/11/18 02:54:24;;;;;;;7.43;3.97;;;19.30;58.60;;;;;;6153574;22;86493;-78
2021/11/18 02:56:52;;;;;;;7.68;3.65;;;19.30;58.80;;;;;;6153554;22;87824;-78
2021/11/18 02:59:19;;;;;;;7.72;3.85;;;19.20;58.20;;;;;;6156180;22;87673;-78
2021/11/18 03:01:46;;;;;;;10.23;3.80;;;19.30;58.70;;;;;;6155024;22;88652;-77
2021/11/18 03:04:13;;;;;;;10.07;3.88;;;19.30;58.50;;;;;;6154125;22;87025;-77
2021/11/18 03:06:40;;;;;;;8.68;3.90;;;19.30;58.60;;;;;;6153063;22;87697;-78
2021/11/18 03:09:05;;;;;;;9.18;4.38;;;19.20;58.70;;;;;;6154553;22;87805;-77
2021/11/18 03:11:32;;;;;;;8.80;4.15;;;19.20;58.50;;;;;;6156127;22;87062;-79
2021/11/18 03:13:58;;;;;;;10.30;4.07;;;19.20;58.20;;;;;;6155948;22;87519;-78
2021/11/18 03:16:24;;;;;;;7.80;3.42;;;19.20;58.60;;;;;;6155591;22;88121;-77
2021/11/18 03:18:51;;;;;;;8.63;4.57;;;19.20;58.40;;;;;;6129414;22;90394;-74
2021/11/18 03:21:20;;;;;;;8.70;3.83;;;19.20;58.20;;;;;;6129325;22;87471;-78
2021/11/18 03:23:46;;;;;;;9.50;3.40;;;19.20;58.30;;;;;;6154492;22;87601;-76
2021/11/18 03:26:15;;;;;;;8.15;3.78;;;19.20;58.50;;;;;;6154759;22;88657;-76
2021/11/18 03:28:40;;;;;;;10.05;4.07;;;19.20;58.40;;;;;;6154761;22;88395;-77
2021/11/18 03:31:09;;;;;;;9.30;3.97;;;19.20;58.80;;;;;;6127875;22;87265;-75
2021/11/18 03:33:39;;;;;;;10.68;4.68;;;19.20;58.70;;;;;;6126838;22;91684;-76
2021/11/18 03:36:05;;;;;;;7.95;4.50;;;19.10;58.90;;;;;;6126184;22;90833;-77
2021/11/18 03:38:32;;;;;;;9.80;3.92;;;19.10;58.90;;;;;;6153345;22;88168;-78
2021/11/18 03:41:03;;;;;;;12.15;4.72;;;19.10;58.90;;;;;;6154554;22;87763;-77
2021/11/18 03:43:32;;;;;;;9.88;4.03;;;19.00;58.70;;;;;;6127613;22;89709;-78
2021/11/18 03:45:58;;;;;;;8.50;4.20;;;19.00;58.70;;;;;;6154261;22;88242;-77
2021/11/18 03:48:24;;;;;;;10.73;4.80;;;19.00;58.80;;;;;;6127127;22;90259;-77
2021/11/18 03:50:50;;;;;;;11.20;4.18;;;19.00;58.80;;;;;;6152667;22;88340;-76
2021/11/18 03:53:17;;;;;;;9.52;4.57;;;19.00;58.80;;;;;;6128152;22;89354;-77
2021/11/18 03:55:43;;;;;;;13.75;5.43;;;19.00;58.80;;;;;;6154728;22;88197;-77
2021/11/18 03:58:09;;;;;;;10.38;4.80;;;19.00;58.90;;;;;;6153950;22;87550;-78
2021/11/18 04:00:36;;;;;;;7.60;4.20;;;19.00;58.80;;;;;;6154126;22;87932;-76
2021/11/18 04:03:03;;;;;;;10.38;4.50;;;18.90;58.70;;;;;;6158916;22;87204;-77
2021/11/18 04:05:29;;;;;;;11.25;4.10;;;18.90;58.80;;;;;;6156844;22;88067;-78
2021/11/18 04:07:55;;;;;;;10.43;4.80;;;18.90;58.80;;;;;;6157057;22;87165;-78
2021/11/18 04:10:24;;;;;;;8.10;4.53;;;18.90;58.70;;;;;;6156556;22;87108;-79
2021/11/18 04:12:50;;;;;;;10.65;4.57;;;18.90;58.70;;;;;;6155407;22;87564;-76
2021/11/18 04:15:19;;;;;;;9.65;4.35;;;18.90;58.60;;;;;;6131801;22;91907;-78
2021/11/18 04:17:44;;;;;;;9.63;4.15;;;19.00;58.50;;;;;;6158140;22;88487;-78
2021/11/18 04:20:12;;;;;;;10.20;4.68;;;19.00;58.40;;;;;;6156816;22;87835;-76
2021/11/18 04:22:39;;;;;;;10.10;4.22;;;18.90;58.30;;;;;;6156378;22;87771;-76
2021/11/18 04:25:09;;;;;;;10.30;5.05;;;18.90;58.60;;;;;;6157089;22;88034;-77
2021/11/18 04:27:35;;;;;;;11.60;5.05;;;18.90;58.60;;;;;;6157265;22;88218;-78
2021/11/18 04:30:00;;;;;;;11.13;4.45;;;18.90;58.60;;;;;;6156602;22;87693;-76
2021/11/18 04:32:28;;;;;;;9.85;4.85;;;18.90;58.60;;;;;;6129365;22;88777;-79
2021/11/18 04:34:54;;;;;;;9.60;4.80;;;18.80;58.60;;;;;;6156713;22;87805;-77
2021/11/18 04:37:21;;;;;;;10.77;4.93;;;18.80;58.60;;;;;;6155736;22;87368;-77
2021/11/18 04:39:47;;;;;;;9.13;4.15;;;18.80;58.70;;;;;;6156054;22;88285;-78
2021/11/18 04:42:15;;;;;;;11.43;5.50;;;18.80;58.60;;;;;;6156319;22;87888;-77
2021/11/18 04:44:41;;;;;;;11.63;4.88;;;18.80;58.50;;;;;;6156683;22;87643;-78
2021/11/18 04:47:10;;;;;;;10.80;4.40;;;18.80;58.10;;;;;;6157187;22;87805;-77
2021/11/18 04:49:36;;;;;;;12.35;5.18;;;18.80;58.30;;;;;;6156562;22;87510;-75
2021/11/18 04:52:03;;;;;;;11.82;5.32;;;18.80;58.20;;;;;;6157216;22;87429;-78
2021/11/18 04:54:29;;;;;;;11.70;4.57;;;18.80;58.20;;;;;;6157052;22;88015;-78
2021/11/18 04:56:55;;;;;;;9.38;5.07;;;18.80;58.00;;;;;;6157653;22;86629;-77
2021/11/18 04:59:21;;;;;;;10.93;4.57;;;18.80;57.90;;;;;;6157063;22;87221;-78
2021/11/18 05:01:46;;;;;;;11.07;4.70;;;18.80;58.00;;;;;;6157449;22;87943;-78
2021/11/18 05:04:12;;;;;;;10.20;4.35;;;18.80;58.00;;;;;;6156254;22;88644;-78
2021/11/18 05:06:39;;;;;;;10.40;5.03;;;18.80;58.10;;;;;;6156826;22;88527;-77
2021/11/18 05:09:07;;;;;;;13.15;5.07;;;18.70;58.10;;;;;;6131357;22;87220;-77
2021/11/18 05:11:33;;;;;;;9.50;4.30;;;18.70;58.20;;;;;;6156314;22;88590;-77
2021/11/18 05:13:59;;;;;;;11.32;4.32;;;18.70;58.10;;;;;;6157018;22;87604;-78
2021/11/18 05:16:27;;;;;;;12.75;4.97;;;18.70;58.00;;;;;;6158381;22;87460;-77
2021/11/18 05:18:52;;;;;;;11.38;4.82;;;18.70;58.00;;;;;;6131214;22;87736;-79
2021/11/18 05:21:21;;;;;;;9.23;4.50;;;18.60;58.10;;;;;;6159721;22;86960;-78
2021/11/18 05:23:47;;;;;;;10.10;4.28;;;18.60;58.20;;;;;;6157092;22;87592;-76
2021/11/18 05:26:15;;;;;;;10.15;4.07;;;18.60;58.10;;;;;;6158771;22;89076;-75
2021/11/18 05:28:42;;;;;;;9.25;4.35;;;18.60;58.00;;;;;;6157634;22;88494;-77
2021/11/18 05:31:09;;;;;;;9.85;4.32;;;18.60;58.00;;;;;;6132093;22;88407;-76
2021/11/18 05:33:34;;;;;;;12.25;4.57;;;18.60;58.10;;;;;;6157803;22;87058;-75
2021/11/18 05:36:00;;;;;;;11.43;4.38;;;18.60;58.20;;;;;;6155428;22;88415;-78
2021/11/18 05:38:26;;;;;;;11.05;4.35;;;18.50;58.20;;;;;;6153395;22;87664;-78
2021/11/18 05:40:53;;;;;;;11.27;4.07;;;18.50;58.40;;;;;;6154719;22;87895;-77
2021/11/18 05:43:19;;;;;;;8.48;4.20;;;18.50;58.40;;;;;;6153597;22;88224;-78
2021/11/18 05:45:45;;;;;;;10.20;4.57;;;18.40;58.50;;;;;;6154109;22;87246;-76
2021/11/18 05:48:15;;;;;;;8.40;4.32;;;18.40;58.60;;;;;;6153870;22;88821;-78
2021/11/18 05:50:49;;;;;;;9.63;4.95;;;18.40;58.70;;;;;;6153626;22;88059;-77
2021/11/18 05:53:17;;;;;;;10.30;4.43;;;18.40;58.70;;;;;;6151648;22;88780;-77
2021/11/18 05:55:43;;;;;;;9.80;4.15;;;18.30;58.70;;;;;;6153218;22;88265;-78
2021/11/18 05:58:09;;;;;;;8.57;4.28;;;18.30;58.60;;;;;;6127240;22;87641;-78
2021/11/18 06:00:35;;;;;;;6.97;3.95;;;18.30;58.70;;;;;;6151041;22;87447;-77
2021/11/18 06:03:01;;;;;;;9.68;4.50;;;18.30;58.70;;;;;;6151474;22;87953;-77
2021/11/18 06:05:31;;;;;;;10.27;4.22;;;18.30;58.70;;;;;;6152841;22;87257;-75
2021/11/18 06:07:57;;;;;;;7.82;3.72;;;18.30;58.70;;;;;;6126171;22;87622;-79
2021/11/18 06:10:26;;;;;;;8.55;4.40;;;18.20;58.80;;;;;;6153216;22;86909;-77
2021/11/18 06:12:52;;;;;;;11.13;4.75;;;18.20;58.80;;;;;;6154785;22;88722;-76
2021/11/18 06:15:18;;;;;;;7.93;3.83;;;18.20;58.90;;;;;;6156264;22;88022;-77
2021/11/18 06:17:44;;;;;;;10.18;4.32;;;18.20;59.00;;;;;;6155309;22;88403;-78
2021/11/18 06:20:12;;;;;;;9.25;4.50;;;18.10;58.90;;;;;;6155524;22;87750;-78
2021/11/18 06:22:38;;;;;;;11.63;4.85;;;18.10;59.00;;;;;;6155384;22;87749;-78
2021/11/18 06:25:05;;;;;;;8.85;4.57;;;18.10;59.00;;;;;;6128799;22;87977;-77
2021/11/18 06:27:31;;;;;;;10.50;4.60;;;18.10;58.90;;;;;;6155291;22;87009;-78
2021/11/18 06:29:56;;;;;;;9.63;4.40;;;18.10;58.90;;;;;;6154239;22;86949;-77
2021/11/18 06:32:22;;;;;;;13.05;4.65;;;18.10;58.90;;;;;;6154015;22;87652;-77
2021/11/18 06:34:51;;;;;;;12.48;3.85;;;18.10;60.20;;;;;;6155471;22;86554;-77
2021/11/18 06:37:17;;;;;;;8.85;3.55;;;18.10;60.90;;;;;;6130870;22;87437;-78
2021/11/18 06:39:43;;;;;;;10.52;3.95;;;18.10;61.10;;;;;;6155759;22;87689;-77
2021/11/18 06:42:11;;;;;;;11.80;5.15;;;18.10;61.40;;;;;;6154530;22;88458;-78
2021/11/18 06:44:38;;;;;;;14.13;5.13;;;18.10;59.70;;;;;;6156537;22;88422;-78
2021/11/18 06:47:05;;;;;;;14.75;5.00;;;18.10;58.90;;;;;;6128769;22;87438;-77
2021/11/18 06:49:30;;;;;;;15.50;4.70;;;18.20;58.50;;;;;;6155729;22;87784;-76
2021/11/18 06:51:56;;;;;;;8.52;4.00;;;18.20;58.10;;;;;;6154943;22;87612;-79
2021/11/18 06:54:22;;;;;;;12.02;3.95;;;18.30;58.30;;;;;;6155822;22;87275;-77
2021/11/18 06:56:48;;;;;;;12.00;3.97;;;18.40;58.40;;;;;;6156573;22;87758;-77
2021/11/18 06:59:14;;;;;;;10.20;4.20;;;18.40;58.60;;;;;;6131562;22;89030;-77
2021/11/18 07:01:41;;;;;;;9.68;4.22;;;18.50;58.50;;;;;;6155609;22;88154;-78
2021/11/18 07:04:08;;;;;;;9.43;3.47;;;18.50;58.30;;;;;;6156930;22;87503;-77
2021/11/18 07:06:36;;;;;;;12.52;3.85;;;18.60;58.20;;;;;;6155829;22;88056;-77
2021/11/18 07:09:05;;;;;;;8.52;3.92;;;18.70;57.90;;;;;;6155721;22;87323;-77
2021/11/18 07:11:31;;;;;;;9.85;3.70;;;18.80;57.60;;;;;;6154837;22;88067;-75
2021/11/18 07:13:57;;;;;;;9.13;4.45;;;18.80;57.40;;;;;;6152928;22;89158;-77
2021/11/18 07:16:24;;;;;;;10.48;3.47;;;18.90;57.30;;;;;;6128195;22;87468;-75
2021/11/18 07:18:50;;;;;;;14.10;4.40;;;18.90;57.40;;;;;;6154491;22;87873;-77
2021/11/18 07:21:18;;;;;;;9.18;3.88;;;19.00;57.60;;;;;;6128435;22;90276;-77
2021/11/18 07:23:45;;;;;;;9.05;4.30;;;19.00;57.60;;;;;;6154527;22;88164;-76
2021/11/18 07:26:12;;;;;;;17.52;9.45;;;19.10;57.30;;;;;;6155068;22;87573;-78
2021/11/18 07:28:39;;;;;;;17.58;9.48;;;19.20;54.10;;;;;;6154460;22;87839;-75
2021/11/18 07:31:06;;;;;;;12.82;6.45;;;19.20;52.80;;;;;;6154086;22;90713;-76
2021/11/18 07:33:33;;;;;;;13.15;6.22;;;19.20;53.80;;;;;;6154247;22;88678;-75
2021/11/18 07:35:59;;;;;;;10.82;5.13;;;19.20;53.70;;;;;;6154673;22;87654;-76
2021/11/18 07:38:28;;;;;;;9.45;4.28;;;19.30;55.80;;;;;;6153328;22;87032;-76
2021/11/18 07:40:54;;;;;;;8.82;4.22;;;19.30;56.50;;;;;;6152616;22;87931;-76
2021/11/18 07:43:25;;;;;;;10.70;3.65;;;19.30;57.20;;;;;;6127291;22;90573;-76
2021/11/18 07:45:52;;;;;;;12.40;4.18;;;19.30;57.20;;;;;;6153148;22;87101;-77
2021/11/18 07:48:18;;;;;;;12.35;4.65;;;19.30;57.40;;;;;;6153603;22;87742;-77
2021/11/18 07:50:44;;;;;;;12.05;4.50;;;19.30;57.60;;;;;;6154398;22;88266;-75
2021/11/18 07:53:11;;;;;;;12.20;4.93;;;19.30;57.40;;;;;;6153355;22;87881;-76
2021/11/18 07:55:36;;;;;;;31.23;7.57;;;19.30;57.30;;;;;;6152901;22;88422;-76
2021/11/18 07:58:02;;;;;;;29.67;8.48;;;19.30;57.20;;;;;;6153086;22;87624;-76
2021/11/18 08:00:29;;;;;;;33.53;8.43;;;19.30;57.00;;;;;;6127768;22;87922;-76
2021/11/18 08:02:54;;;;;;;31.85;7.70;;;19.30;56.50;;;;;;6127888;22;90922;-76
2021/11/18 08:05:20;;;;;;;33.83;8.60;;;19.20;56.20;;;;;;6155019;22;87104;-76
2021/11/18 08:07:46;;;;;;;26.98;6.90;;;19.30;56.00;;;;;;6128239;22;88280;-77
2021/11/18 08:10:13;;;;;;;30.88;7.95;;;19.30;55.70;;;;;;6154679;22;88051;-76
2021/11/18 08:12:40;;;;;;;26.33;6.75;;;19.30;55.40;;;;;;6153318;22;88325;-76
2021/11/18 08:15:10;;;;;;;25.83;6.55;;;19.30;55.10;;;;;;6127984;22;87419;-76
2021/11/18 08:17:36;;;;;;;20.23;5.65;;;19.40;55.00;;;;;;6152146;22;87459;-76
2021/11/18 08:20:03;;;;;;;28.55;6.82;;;19.30;54.70;;;;;;6151336;22;88509;-75
2021/11/18 08:22:29;;;;;;;17.00;5.55;;;19.30;54.40;;;;;;6151158;22;87606;-75
2021/11/18 08:24:55;;;;;;;26.05;6.82;;;19.40;54.30;;;;;;6158861;22;87345;-76
2021/11/18 08:27:22;;;;;;;22.88;5.55;;;19.40;54.20;;;;;;6168326;22;87598;-76
2021/11/18 08:29:50;;;;;;;16.90;5.68;;;19.40;54.40;;;;;;6175851;22;87184;-78
2021/11/18 08:32:18;;;;;;;22.10;5.57;;;19.40;54.30;;;;;;6178564;22;87155;-77
2021/11/18 08:34:45;;;;;;;12.93;4.75;;;19.30;54.00;;;;;;6171402;22;87110;-79
2021/11/18 08:37:15;;;;;;;19.35;5.53;;;19.40;53.80;;;;;;6172919;22;86860;-77
2021/11/18 08:39:48;;;;;;;18.02;5.35;;;19.30;54.10;;;;;;6166179;22;88069;-77
2021/11/18 08:42:17;;;;;;;17.30;5.30;;;19.30;54.00;;;;;;6131686;22;87470;-77
2021/11/18 08:44:43;;;;;;;10.82;4.30;;;19.30;53.90;;;;;;6172353;22;88368;-80
2021/11/18 08:47:10;;;;;;;15.82;4.75;;;19.30;54.00;;;;;;6169842;22;87601;-77
2021/11/18 08:49:37;;;;;;;12.02;4.32;;;19.30;54.00;;;;;;6172317;22;89533;-78
2021/11/18 08:52:08;;;;;;;14.77;4.72;;;19.30;54.00;;;;;;6167421;22;87193;-78
2021/11/18 08:54:38;;;;;;;16.58;5.00;;;19.30;54.00;;;;;;6142711;22;87816;-75
2021/11/18 08:57:06;;;;;;;19.42;4.80;;;19.30;54.00;;;;;;6124146;22;87895;-77
2021/11/18 08:59:32;;;;;;;15.13;4.65;;;19.20;54.20;;;;;;6159724;22;90014;-77
2021/11/18 09:02:01;;;;;;;18.77;5.05;;;19.30;54.40;;;;;;6132615;22;89382;-80
2021/11/18 09:04:27;;;;;;;18.05;5.05;;;19.30;55.20;;;;;;6133873;22;87537;-76
2021/11/18 09:06:54;;;;;;;13.25;4.70;;;19.40;54.40;;;;;;6137862;22;89439;-79
2021/11/18 09:09:22;;;;;;;11.50;4.20;;;19.40;55.80;;;;;;6169625;22;88261;-77
2021/11/18 09:11:50;;;;;;;12.25;4.53;;;19.40;56.60;;;;;;6168706;22;87528;-79
2021/11/18 09:14:17;;;;;;;16.08;5.15;;;19.50;56.10;;;;;;6158563;22;87653;-77
2021/11/18 09:16:45;;;;;;;13.00;4.15;;;19.60;57.60;;;;;;6155054;22;87797;-78
2021/11/18 09:19:17;;;;;;;13.52;4.55;;;19.60;55.00;;;;;;6155462;22;87766;-78
2021/11/18 09:21:45;;;;;;;10.32;4.35;;;19.60;54.60;;;;;;6163292;22;89598;-77
2021/11/18 09:24:46;;;;;;;13.30;4.47;;;19.60;54.80;;;;;;6150847;22;87215;-77
2021/11/18 09:27:34;;;;;;;13.90;4.30;;;19.60;55.30;;;;;;6149283;22;87009;-78
2021/11/18 09:30:05;;;;;;;11.77;4.10;;;19.60;55.90;;;;;;6152024;22;87227;-75
2021/11/18 09:32:34;;;;;;;13.85;4.00;;;19.70;55.60;;;;;;6150708;22;87784;-77
2021/11/18 09:35:04;;;;;;;10.90;3.90;;;19.70;55.40;;;;;;6150064;22;88372;-77
2021/11/18 09:37:29;;;;;;;14.73;3.85;;;19.70;55.20;;;;;;6152226;22;88004;-77
2021/11/18 09:39:55;;;;;;;10.65;3.70;;;19.80;55.10;;;;;;6166258;22;87683;-79
2021/11/18 09:42:31;;;;;;;10.43;3.20;;;19.80;55.30;;;;;;6166803;22;87090;-78
2021/11/18 09:45:13;;;;;;;11.77;3.38;;;19.80;55.60;;;;;;6168778;22;87126;-78
2021/11/18 09:48:16;;;;;;;13.82;3.90;;;19.80;55.20;;;;;;6169257;22;87473;-78
2021/11/18 09:50:58;;;;;;;12.00;4.22;;;19.90;55.00;;;;;;6166877;22;88771;-76
2021/11/18 09:53:53;;;;;;;13.07;3.70;;;19.90;54.80;;;;;;6157788;22;87721;-77
2021/11/18 09:56:32;;;;;;;13.85;3.50;;;19.90;54.50;;;;;;6169676;22;87784;-80
2021/11/18 09:59:31;;;;;;;10.73;3.20;;;19.90;54.20;;;;;;6135162;22;87099;-78
2021/11/18 10:02:18;;;;;;;11.02;3.42;;;20.00;54.10;;;;;;6165836;22;88496;-78
2021/11/18 10:04:52;;;;;;;11.07;3.40;;;20.00;54.40;;;;;;6166992;22;88293;-78
2021/11/18 10:07:22;;;;;;;9.93;3.00;;;20.00;54.30;;;;;;6169312;22;87404;-76
2021/11/18 10:10:11;;;;;;;12.20;3.60;;;20.00;54.30;;;;;;6171882;22;87065;-81
2021/11/18 10:12:55;;;;;;;11.95;3.47;;;20.00;54.00;;;;;;6154583;22;90578;-79
2021/11/18 10:15:30;;;;;;;9.38;2.97;;;20.10;54.00;;;;;;6178410;22;86951;-80
2021/11/18 10:18:13;;;;;;;12.00;3.45;;;20.10;54.20;;;;;;6159563;22;87610;-82
2021/11/18 10:20:41;;;;;;;11.35;3.33;;;20.10;54.20;;;;;;6189599;22;85857;-82
2021/11/18 10:23:27;;;;;;;11.15;3.08;;;20.10;54.20;;;;;;6161605;22;87846;-82
2021/11/18 10:26:29;;;;;;;10.27;3.33;;;20.10;54.10;;;;;;6184359;22;87896;-79
2021/11/18 10:29:22;;;;;;;10.95;3.42;;;20.20;54.00;;;;;;6178778;22;87955;-81
2021/11/18 10:31:50;;;;;;;9.82;2.78;;;20.20;53.70;;;;;;6147765;22;87720;-80
2021/11/18 10:34:48;;;;;;;9.43;2.92;;;20.20;53.40;;;;;;6149107;22;89203;-78
2021/11/18 10:37:30;;;;;;;9.85;3.53;;;20.20;53.20;;;;;;6143346;22;89878;-79
2021/11/18 10:40:15;;;;;;;9.93;3.35;;;20.20;53.00;;;;;;6173587;22;86944;-79
2021/11/18 10:43:15;;;;;;;8.25;2.60;;;20.20;52.90;;;;;;6154621;22;89418;-80
2021/11/18 10:45:48;;;;;;;7.95;2.50;;;20.20;53.10;;;;;;6142700;22;89343;-78
2021/11/18 10:48:37;;;;;;;8.07;2.97;;;20.30;53.00;;;;;;6159306;22;87178;-78
2021/11/18 10:51:10;;;;;;;7.97;2.60;;;20.20;52.70;;;;;;6157252;22;87575;-79
2021/11/18 10:53:56;;;;;;;7.63;2.72;;;20.30;52.60;;;;;;6132926;22;88490;-77
2021/11/18 10:56:44;;;;;;;9.38;3.35;;;20.20;52.50;;;;;;6143194;22;91872;-78
2021/11/18 10:59:30;;;;;;;9.07;3.22;;;20.20;52.40;;;;;;6154271;22;88640;-78
2021/11/18 11:01:56;;;;;;;9.77;2.78;;;20.20;52.40;;;;;;6177661;22;86960;-79
2021/11/18 11:04:57;;;;;;;6.82;2.15;;;20.20;52.40;;;;;;6150878;22;89605;-79
2021/11/18 11:07:38;;;;;;;8.02;2.92;;;20.20;52.50;;;;;;6110765;22;88117;-78
2021/11/18 11:10:08;;;;;;;10.05;2.95;;;20.20;52.40;;;;;;6145559;22;89381;-77
2021/11/18 11:12:39;;;;;;;9.45;2.88;;;20.20;52.40;;;;;;6146262;22;86815;-79
2021/11/18 11:15:29;;;;;;;7.90;2.75;;;20.20;52.30;;;;;;6148008;22;88115;-79
2021/11/18 11:18:50;;;;;;;10.57;2.63;;;20.20;52.40;;;;;;6151076;22;89624;-77
2021/11/18 11:21:40;;;;;;;11.38;2.85;;;20.20;52.50;;;;;;6092531;22;87031;-79
2021/11/18 11:24:21;;;;;;;8.50;2.28;;;20.20;52.50;;;;;;6146280;22;87981;-78
2021/11/18 11:27:11;;;;;;;8.65;2.50;;;20.20;52.60;;;;;;6177211;22;87666;-77
2021/11/18 11:29:49;;;;;;;10.77;3.22;;;20.20;53.30;;;;;;6179257;22;87024;-78
2021/11/18 11:32:23;;;;;;;7.35;2.80;;;20.20;53.00;;;;;;6156774;22;89288;-76
2021/11/18 11:35:04;;;;;;;9.57;2.80;;;20.10;52.80;;;;;;6182359;22;86468;-78
2021/11/18 11:37:52;;;;;;;10.63;2.88;;;20.10;52.70;;;;;;6181065;22;86479;-79
2021/11/18 11:40:34;;;;;;;11.60;3.38;;;20.10;52.80;;;;;;6153753;22;89346;-75
2021/11/18 11:43:26;;;;;;;7.18;2.60;;;20.10;52.80;;;;;;6156491;22;87923;-79
2021/11/18 11:46:13;;;;;;;8.48;2.38;;;20.10;52.80;;;;;;6154838;22;86928;-82
2021/11/18 11:48:51;;;;;;;9.23;2.85;;;20.10;52.70;;;;;;6180026;22;87460;-80
2021/11/18 11:51:42;;;;;;;10.27;3.35;;;20.10;52.70;;;;;;6177353;22;88505;-76
2021/11/18 11:54:34;;;;;;;10.80;2.80;;;20.10;52.60;;;;;;6179518;22;87468;-81
2021/11/18 11:57:24;;;;;;;8.02;2.20;;;20.10;52.60;;;;;;6163706;22;86811;-77
2021/11/18 12:00:10;;;;;;;6.50;2.25;;;20.10;52.60;;;;;;6151702;22;88557;-78
2021/11/18 12:02:50;;;;;;;10.85;2.50;;;20.10;52.60;;;;;;6174445;22;87902;-80
2021/11/18 12:05:37;;;;;;;9.15;2.25;;;20.10;52.60;;;;;;6147824;22;88839;-81
2021/11/18 12:08:12;;;;;;;11.13;2.65;;;20.10;52.60;;;;;;6150938;22;86908;-79
2021/11/18 12:10:50;;;;;;;10.15;2.35;;;20.10;52.50;;;;;;6144305;22;89452;-77
2021/11/18 12:13:31;;;;;;;8.95;2.65;;;20.10;52.50;;;;;;6171829;22;88107;-80
2021/11/18 12:16:11;;;;;;;6.38;2.53;;;20.10;52.50;;;;;;6171253;22;87001;-76
2021/11/18 12:19:15;;;;;;;7.18;2.70;;;20.10;52.40;;;;;;6142715;22;88584;-77
2021/11/18 12:21:41;;;;;;;12.05;2.95;;;20.10;52.40;;;;;;6140573;22;88007;-80
2021/11/18 12:24:11;;;;;;;15.05;3.08;;;20.10;53.80;;;;;;6135338;22;89507;-78
2021/11/18 12:26:56;;;;;;;10.93;3.05;;;20.10;53.80;;;;;;6123916;22;90850;-79
2021/11/18 12:29:49;;;;;;;7.63;2.53;;;20.10;53.20;;;;;;6152090;22;87737;-78
2021/11/18 12:32:21;;;;;;;8.18;2.53;;;20.20;52.80;;;;;;6150830;22;87473;-78
2021/11/18 12:34:52;;;;;;;11.63;2.60;;;20.20;52.60;;;;;;6124702;22;90328;-78
2021/11/18 12:37:59;;;;;;;9.85;2.42;;;20.20;52.50;;;;;;6152191;22;88567;-78
2021/11/18 12:41:07;;;;;;;10.20;2.45;;;20.20;52.50;;;;;;6142917;22;87530;-78
2021/11/18 12:44:01;;;;;;;7.82;2.42;;;20.20;52.40;;;;;;6148116;22;87172;-77
2021/11/18 12:46:54;;;;;;;7.35;2.30;;;20.20;52.50;;;;;;6123053;22;91309;-78
2021/11/18 12:49:52;;;;;;;8.90;2.60;;;20.20;52.50;;;;;;6149560;22;88633;-78
2021/11/18 12:52:24;;;;;;;6.95;2.45;;;20.20;52.60;;;;;;6095561;22;87829;-79
2021/11/18 12:55:11;;;;;;;8.32;2.65;;;20.20;52.60;;;;;;6150199;22;87084;-76
2021/11/18 12:58:14;;;;;;;10.75;2.92;;;20.20;52.60;;;;;;6124327;22;90457;-78
2021/11/18 13:00:44;;;;;;;9.10;2.50;;;20.20;52.50;;;;;;6149977;22;87787;-77
2021/11/18 13:03:15;;;;;;;10.27;2.10;;;20.20;52.60;;;;;;6124023;22;87538;-78